Time;durP1;ratioP1;P1;durP2;ratioP2;P2;SDS_P1;SDS_P2;PMS_P1;PMS_P2;Temp;Humidity;BMP_temperature;BMP_pressure;BME280_temperature;BME280_humidity;BME280_pressure;Samples;Min_cycle;Max_cycle;Signal;HPM_P1;HPM_P2
2022/03/10 00:02:21;;;;;;;13.65;8.23;;;;;;;1.33;59.62;101116.78;5051363;28;20052;-77
2022/03/10 00:04:46;;;;;;;12.88;7.32;;;;;;;1.37;59.80;101112.25;5051352;28;20467;-78
2022/03/10 00:07:13;;;;;;;20.23;7.72;;;;;;;1.40;60.02;101118.31;5051187;28;20044;-78
2022/03/10 00:09:39;;;;;;;11.30;7.63;;;;;;;1.44;59.88;101109.31;5051803;28;20048;-78
2022/03/10 00:12:07;;;;;;;13.93;8.05;;;;;;;1.44;59.62;101105.78;5034547;28;20028;-78
2022/03/10 00:14:34;;;;;;;13.30;7.47;;;;;;;1.51;59.42;101120.56;5034295;28;20109;-79
2022/03/10 00:17:01;;;;;;;12.00;6.88;;;;;;;1.20;59.99;101114.63;5052131;28;20039;-78
2022/03/10 00:19:26;;;;;;;12.45;7.68;;;;;;;1.21;60.07;101111.94;5050651;28;20106;-78
2022/03/10 00:21:52;;;;;;;12.82;7.70;;;;;;;1.24;60.49;101111.81;5051240;28;20514;-79
2022/03/10 00:24:18;;;;;;;14.70;8.43;;;;;;;1.31;60.32;101112.47;5050625;28;20017;-79
2022/03/10 00:26:46;;;;;;;12.80;8.35;;;;;;;1.30;59.86;101102.78;5052575;28;20025;-78
2022/03/10 00:29:12;;;;;;;13.05;7.25;;;;;;;1.29;59.84;101106.34;5052303;28;20017;-79
2022/03/10 00:31:42;;;;;;;24.17;8.20;;;;;;;1.41;60.39;101109.41;5051989;28;20147;-79
2022/03/10 00:34:08;;;;;;;16.10;8.27;;;;;;;1.47;60.37;101116.28;5051156;28;20033;-79
2022/03/10 00:36:35;;;;;;;14.77;9.05;;;;;;;1.44;60.11;101095.19;5052151;28;20037;-77
2022/03/10 00:39:01;;;;;;;14.30;8.35;;;;;;;1.56;59.99;101115.97;5050986;28;20551;-76
2022/03/10 00:41:27;;;;;;;14.45;8.88;;;;;;;1.50;59.41;101102.91;5051048;28;20017;-76
2022/03/10 00:43:52;;;;;;;13.70;7.50;;;;;;;1.33;59.93;101129.16;5050917;28;20094;-77
2022/03/10 00:46:18;;;;;;;12.45;7.78;;;;;;;1.35;59.81;101119.38;5050799;28;20032;-77
2022/03/10 00:48:45;;;;;;;12.65;8.18;;;;;;;1.27;59.73;101100.25;5052457;28;20036;-76
2022/03/10 00:51:11;;;;;;;14.68;8.10;;;;;;;1.28;60.29;101121.41;5051470;28;20037;-76
2022/03/10 00:53:37;;;;;;;14.20;8.48;;;;;;;1.24;60.46;101108.31;5034575;28;20108;-77
2022/03/10 00:56:02;;;;;;;12.88;7.22;;;;;;;1.31;60.19;101112.47;5051082;28;20186;-77
2022/03/10 00:58:28;;;;;;;18.08;7.82;;;;;;;1.33;60.26;101132.69;5052988;28;20025;-77
2022/03/10 01:00:54;;;;;;;16.90;8.55;;;;;;;1.25;60.51;101123.28;5055899;28;20028;-77
2022/03/10 01:03:23;;;;;;;19.17;8.60;;;;;;;1.28;60.44;101123.19;5055998;28;20021;-81
2022/03/10 01:05:49;;;;;;;15.77;8.80;;;;;;;1.27;60.34;101119.66;5055789;28;20028;-77
2022/03/10 01:08:14;;;;;;;15.60;8.93;;;;;;;1.07;60.73;101107.09;5054533;28;20017;-76
2022/03/10 01:10:41;;;;;;;11.30;8.32;;;;;;;1.19;60.52;101115.56;5055350;28;20025;-77
2022/03/10 01:13:18;;;;;;;12.80;8.02;;;;;;;1.13;60.29;101097.25;5055522;28;20075;-77
2022/03/10 01:15:46;;;;;;;14.68;8.20;;;;;;;1.15;60.07;101114.78;5055437;28;20094;-77
2022/03/10 01:18:14;;;;;;;13.02;8.23;;;;;;;1.21;60.43;101119.88;5055522;28;20025;-77
2022/03/10 01:20:41;;;;;;;12.77;8.52;;;;;;;1.05;61.33;101116.91;5055718;28;20034;-77
2022/03/10 01:23:09;;;;;;;13.45;8.30;;;;;;;1.08;60.93;101115.91;5055630;28;20017;-77
2022/03/10 01:25:37;;;;;;;14.80;8.18;;;;;;;1.13;61.52;101107.84;5037955;28;20120;-77
2022/03/10 01:28:03;;;;;;;12.43;8.15;;;;;;;1.20;60.80;101098.72;5054232;28;20051;-77
2022/03/10 01:30:29;;;;;;;13.43;9.25;;;;;;;1.18;60.85;101111.16;5054634;28;20112;-77
2022/03/10 01:32:55;;;;;;;13.73;8.80;;;;;;;1.01;61.46;101115.25;5068286;28;20037;-77
2022/03/10 01:35:21;;;;;;;15.95;9.63;;;;;;;1.04;61.61;101109.84;5056132;28;20056;-78
2022/03/10 01:37:47;;;;;;;20.45;8.85;;;;;;;1.18;61.52;101111.16;5054744;28;20498;-77
2022/03/10 01:40:15;;;;;;;16.80;8.45;;;;;;;1.02;61.81;101105.53;5054684;28;20021;-77
2022/03/10 01:42:41;;;;;;;13.77;8.82;;;;;;;1.16;61.60;101113.03;5054188;28;20099;-77
2022/03/10 01:45:12;;;;;;;15.68;9.70;;;;;;;1.01;61.29;101083.47;5054775;28;20020;-77
2022/03/10 01:47:38;;;;;;;13.50;9.43;;;;;;;1.12;61.63;101106.09;5053635;28;20453;-77
2022/03/10 01:50:12;;;;;;;13.23;9.73;;;;;;;1.02;61.74;101113.47;5053734;28;20024;-77
2022/03/10 01:52:39;;;;;;;18.33;9.93;;;;;;;0.86;61.36;101089.31;5037132;28;20399;-77
2022/03/10 01:55:05;;;;;;;15.23;9.48;;;;;;;0.82;61.76;101082.41;5036656;28;20032;-77
2022/03/10 01:57:31;;;;;;;11.57;8.20;;;;;;;0.94;62.07;101095.22;5053486;28;20052;-78
2022/03/10 01:59:56;;;;;;;14.07;8.55;;;;;;;1.08;61.68;101111.50;5054898;28;20021;-78
2022/03/10 02:02:23;;;;;;;16.23;9.63;;;;;;;1.15;61.35;101116.56;5019905;28;20033;-77
2022/03/10 02:04:53;;;;;;;13.48;9.25;;;;;;;1.14;61.19;101109.53;5055045;28;20025;-77
2022/03/10 02:10:19;;;;;;;15.95;8.95;;;;;;;1.01;61.66;101104.66;5053572;28;20095;-78
2022/03/10 02:12:46;;;;;;;15.90;7.83;;;;;;;0.94;61.55;101108.47;5039048;28;20049;-77
2022/03/10 02:18:08;;;;;;;13.20;8.70;;;;;;;0.98;61.98;101119.78;5054668;28;20163;-77
2022/03/10 02:20:35;;;;;;;18.27;9.45;;;;;;;0.96;61.75;101122.50;5054583;28;20028;-77
2022/03/10 02:23:01;;;;;;;19.98;8.93;;;;;;;0.87;61.68;101121.94;5054269;28;20025;-77
2022/03/10 02:25:28;;;;;;;19.10;9.48;;;;;;;0.85;61.66;101119.38;5055060;28;20497;-77
2022/03/10 02:27:55;;;;;;;15.80;8.80;;;;;;;0.80;61.85;101117.78;5052983;28;20017;-77
2022/03/10 02:30:23;;;;;;;15.93;9.52;;;;;;;0.78;61.95;101120.47;5054316;28;20461;-78
2022/03/10 02:32:48;;;;;;;11.68;8.45;;;;;;;0.76;62.39;101124.09;5053208;28;20391;-77
2022/03/10 02:35:14;;;;;;;15.30;8.57;;;;;;;0.78;62.28;101139.03;5054251;28;20021;-77
2022/03/10 02:37:40;;;;;;;18.48;10.07;;;;;;;0.70;62.01;101124.31;5052742;28;20033;-77
2022/03/10 02:40:07;;;;;;;15.75;9.23;;;;;;;0.69;62.58;101127.88;5052697;28;20029;-78
2022/03/10 02:42:34;;;;;;;15.25;9.55;;;;;;;0.74;62.30;101133.84;5054685;28;20024;-78
2022/03/10 02:45:00;;;;;;;19.23;8.85;;;;;;;0.82;62.32;101138.00;5056016;28;20502;-77
2022/03/10 02:47:26;;;;;;;16.42;10.23;;;;;;;0.62;62.46;101116.59;5052805;28;20033;-77
2022/03/10 02:49:52;;;;;;;14.77;9.52;;;;;;;0.77;62.47;101150.50;5052289;28;20037;-77
2022/03/10 02:52:19;;;;;;;15.02;10.30;;;;;;;0.55;62.57;101110.66;5052847;28;20032;-78
2022/03/10 02:54:46;;;;;;;15.75;10.55;;;;;;;0.73;62.47;101130.38;5052901;28;20052;-79
2022/03/10 02:57:14;;;;;;;19.42;11.25;;;;;;;0.76;62.28;101138.22;5035384;28;20132;-78
2022/03/10 02:59:40;;;;;;;18.77;11.15;;;;;;;0.73;62.30;101140.97;5053565;28;20464;-77
2022/03/10 03:02:07;;;;;;;18.60;10.43;;;;;;;0.57;62.56;101131.78;5052419;28;20037;-77
2022/03/10 03:04:33;;;;;;;17.88;11.02;;;;;;;0.64;62.85;101133.31;5053605;28;20041;-78
2022/03/10 03:06:59;;;;;;;16.02;10.73;;;;;;;0.54;62.71;101145.13;5058452;28;20100;-78
2022/03/10 03:09:24;;;;;;;20.15;10.25;;;;;;;0.52;62.55;101131.06;5028498;28;20032;-78
2022/03/10 03:11:50;;;;;;;22.58;9.82;;;;;;;0.56;63.22;101124.75;5053984;28;20109;-77
2022/03/10 03:14:15;;;;;;;18.08;10.30;;;;;;;0.68;62.67;101148.16;5053720;28;20438;-78
2022/03/10 03:16:42;;;;;;;15.93;10.00;;;;;;;0.74;62.59;101140.03;5051454;28;20029;-78
2022/03/10 03:19:09;;;;;;;18.63;10.80;;;;;;;0.50;62.85;101131.09;5051976;28;20029;-78
2022/03/10 03:21:35;;;;;;;16.85;9.27;;;;;;;0.54;62.68;101130.09;5052065;28;20037;-78
2022/03/10 03:24:02;;;;;;;18.45;11.00;;;;;;;0.61;62.29;101138.72;5051730;28;20044;-79
2022/03/10 03:26:28;;;;;;;25.80;11.00;;;;;;;0.65;62.28;101140.31;5053290;28;20090;-79
2022/03/10 03:28:54;;;;;;;17.85;10.25;;;;;;;0.68;62.42;101136.72;5051538;28;20045;-78
2022/03/10 03:31:20;;;;;;;18.52;11.43;;;;;;;0.55;62.26;101128.34;5052053;28;20071;-78
2022/03/10 03:33:50;;;;;;;16.30;10.45;;;;;;;0.54;62.57;101137.19;5053103;28;20033;-78
2022/03/10 03:36:16;;;;;;;18.88;11.10;;;;;;;0.59;62.18;101145.81;5051814;28;20036;-78
2022/03/10 03:38:42;;;;;;;24.30;10.82;;;;;;;0.52;62.12;101136.38;5053097;28;20028;-78
2022/03/10 03:41:10;;;;;;;16.55;10.77;;;;;;;0.54;62.60;101131.88;5053499;28;20021;-78
2022/03/10 03:43:35;;;;;;;18.70;9.82;;;;;;;0.44;62.08;101127.78;5052545;28;20033;-76
2022/03/10 03:46:01;;;;;;;20.15;11.38;;;;;;;0.25;62.52;101105.47;5052700;28;20039;-77
2022/03/10 03:48:26;;;;;;;17.92;9.65;;;;;;;0.41;62.55;101130.53;5052193;28;20056;-77
2022/03/10 03:50:52;;;;;;;15.45;9.85;;;;;;;0.31;62.42;101132.59;5052083;28;20028;-79
2022/03/10 03:53:18;;;;;;;15.75;9.95;;;;;;;0.27;62.83;101138.06;5034723;28;20037;-77
2022/03/10 03:55:44;;;;;;;18.40;10.35;;;;;;;0.20;62.99;101128.56;5052389;28;20052;-77
2022/03/10 03:58:11;;;;;;;20.55;11.10;;;;;;;0.18;63.38;101131.28;5051849;28;20079;-76
2022/03/10 04:00:37;;;;;;;19.27;11.55;;;;;;;0.00;63.87;101115.97;5052913;28;20029;-79
2022/03/10 04:03:10;;;;;;;18.67;10.77;;;;;;;0.06;63.54;101136.94;5052711;28;20593;-78
2022/03/10 04:05:37;;;;;;;16.48;9.43;;;;;;;0.07;63.93;101127.19;5052386;28;20121;-79
2022/03/10 04:08:04;;;;;;;16.98;9.60;;;;;;;0.00;63.91;101135.31;5051195;28;20471;-77
2022/03/10 04:10:31;;;;;;;17.65;10.88;;;;;;;-0.08;64.04;101141.75;5052521;28;20033;-77
2022/03/10 04:12:57;;;;;;;21.65;12.18;;;;;;;-0.13;64.09;101126.03;5050810;28;20025;-76
2022/03/10 04:15:23;;;;;;;26.10;11.93;;;;;;;-0.12;64.08;101138.31;5050745;28;20021;-76
2022/03/10 04:17:48;;;;;;;20.80;11.48;;;;;;;-0.22;64.04;101123.66;5050808;28;20028;-76
2022/03/10 04:20:15;;;;;;;18.38;11.70;;;;;;;-0.33;64.32;101131.03;5052478;28;20525;-79
2022/03/10 04:22:42;;;;;;;19.95;12.20;;;;;;;-0.29;64.76;101123.88;5051408;28;20036;-78
2022/03/10 04:25:08;;;;;;;22.60;12.05;;;;;;;-0.33;64.66;101123.09;5051389;28;20090;-78
2022/03/10 04:27:37;;;;;;;24.08;11.38;;;;;;;-0.29;65.00;101132.69;5051972;28;20403;-79
2022/03/10 04:30:04;;;;;;;21.48;12.82;;;;;;;-0.37;64.71;101124.13;5046374;28;20025;-78
2022/03/10 04:32:40;;;;;;;28.17;13.95;;;;;;;-0.38;64.59;101125.00;5053715;28;20037;-77
2022/03/10 04:35:06;;;;;;;17.42;10.63;;;;;;;-0.42;64.54;101123.38;5054923;28;20041;-79
2022/03/10 04:37:31;;;;;;;24.83;12.05;;;;;;;-0.36;64.54;101143.44;5054235;28;20064;-78
2022/03/10 04:39:57;;;;;;;23.30;11.75;;;;;;;-0.36;64.88;101144.31;5038550;28;20120;-77
2022/03/10 04:42:24;;;;;;;18.90;11.23;;;;;;;-0.44;64.52;101141.03;5047344;28;20033;-77
2022/03/10 04:44:50;;;;;;;23.85;11.20;;;;;;;-0.26;64.14;101156.38;5058541;28;20163;-77
2022/03/10 04:47:19;;;;;;;22.95;9.85;;;;;;;-0.15;64.11;101158.69;5055134;28;20083;-77
2022/03/10 04:49:44;;;;;;;25.63;12.63;;;;;;;-0.16;63.94;101162.25;5055775;28;20086;-77
2022/03/10 04:52:10;;;;;;;34.88;13.15;;;;;;;-0.10;63.73;101172.66;5056281;28;20548;-77
2022/03/10 04:54:35;;;;;;;33.42;13.30;;;;;;;-0.24;63.96;101165.13;5038278;28;20047;-77
2022/03/10 04:57:01;;;;;;;25.10;11.82;;;;;;;-0.19;63.57;101162.34;5054553;28;20471;-77
2022/03/10 04:59:31;;;;;;;42.60;12.60;;;;;;;-0.13;63.47;101173.63;5055983;28;20029;-77
2022/03/10 05:01:57;;;;;;;16.50;10.57;;;;;;;-0.14;63.30;101166.59;5022390;28;20033;-79
2022/03/10 05:04:23;;;;;;;24.60;11.52;;;;;;;-0.17;62.84;101171.97;5054332;28;20442;-78
2022/03/10 05:06:49;;;;;;;17.58;11.43;;;;;;;-0.12;62.98;101177.97;5055482;28;20119;-78
2022/03/10 05:09:14;;;;;;;26.52;13.25;;;;;;;-0.12;63.12;101172.69;5054568;28;20029;-78
2022/03/10 05:11:40;;;;;;;18.00;12.05;;;;;;;-0.01;62.36;101181.19;5055446;28;20479;-76
2022/03/10 05:14:05;;;;;;;21.02;11.30;;;;;;;-0.05;62.44;101178.66;5037134;28;20040;-76
2022/03/10 05:16:31;;;;;;;29.13;11.60;;;;;;;-0.11;61.94;101173.56;5054948;28;20048;-77
2022/03/10 05:18:56;;;;;;;19.02;11.43;;;;;;;-0.32;62.42;101140.69;5055704;28;20135;-80
2022/03/10 05:21:22;;;;;;;16.67;11.30;;;;;;;-0.11;62.20;101174.44;5054595;28;20029;-80
2022/03/10 05:23:52;;;;;;;28.52;10.52;;;;;;;-0.15;62.08;101156.03;5053811;28;20055;-80
2022/03/10 05:26:22;;;;;;;18.63;10.40;;;;;;;-0.23;62.27;101142.19;5056450;28;20021;-83
2022/03/10 05:28:49;;;;;;;25.27;10.45;;;;;;;-0.19;62.25;101152.66;5055580;28;20088;-80
2022/03/10 05:31:16;;;;;;;37.83;12.82;;;;;;;-0.01;62.42;101175.03;5056236;28;20051;-78
2022/03/10 05:33:41;;;;;;;19.15;11.05;;;;;;;0.06;61.53;101181.00;5055501;28;20032;-77
2022/03/10 05:36:08;;;;;;;18.80;10.68;;;;;;;-0.01;61.53;101162.69;5054599;28;20052;-78
2022/03/10 05:38:35;;;;;;;20.30;10.35;;;;;;;0.15;61.77;101193.97;5037084;28;20025;-77
2022/03/10 05:41:05;;;;;;;17.80;11.38;;;;;;;0.11;61.28;101174.66;5036989;28;20043;-80
2022/03/10 05:43:32;;;;;;;28.40;12.77;;;;;;;0.29;61.14;101211.16;5054354;28;20024;-79
2022/03/10 05:45:58;;;;;;;21.75;11.60;;;;;;;0.19;61.93;101195.59;5054645;28;20055;-79
2022/03/10 05:48:24;;;;;;;17.45;10.25;;;;;;;0.26;61.98;101207.72;5054360;28;20483;-77
2022/03/10 05:50:52;;;;;;;32.97;12.82;;;;;;;0.45;61.68;101203.63;5054528;28;20607;-79
2022/03/10 05:53:18;;;;;;;24.67;13.05;;;;;;;0.27;61.29;101188.31;5053096;28;20083;-77
2022/03/10 05:55:45;;;;;;;41.42;12.75;;;;;;;0.35;61.14;101196.88;5053314;28;20164;-79
2022/03/10 05:58:11;;;;;;;18.65;11.00;;;;;;;0.46;61.48;101200.03;5053643;28;20032;-78
2022/03/10 06:00:38;;;;;;;28.15;13.70;;;;;;;0.53;61.08;101196.28;5053338;28;20029;-79
2022/03/10 06:03:03;;;;;;;20.27;12.13;;;;;;;0.51;61.31;101192.84;5037049;28;20033;-79
2022/03/10 06:05:30;;;;;;;22.30;12.50;;;;;;;0.69;60.78;101218.72;5055082;28;20032;-80
2022/03/10 06:07:56;;;;;;;26.75;14.75;;;;;;;0.57;60.63;101192.66;5055274;28;20107;-79
2022/03/10 06:10:24;;;;;;;25.88;12.70;;;;;;;0.82;60.59;101228.03;5054269;28;20056;-79
2022/03/10 06:12:50;;;;;;;39.55;14.48;;;;;;;0.74;59.92;101192.09;5036995;28;20117;-79
2022/03/10 06:15:17;;;;;;;23.13;12.75;;;;;;;0.62;59.89;101173.97;5055088;28;20033;-78
2022/03/10 06:17:45;;;;;;;27.00;12.63;;;;;;;0.85;60.21;101187.34;5057912;28;20029;-79
2022/03/10 06:20:18;;;;;;;22.25;11.95;;;;;;;0.96;59.40;101223.13;5057408;28;20036;-78
2022/03/10 06:22:45;;;;;;;23.35;12.05;;;;;;;0.97;58.96;101203.69;5020739;28;20033;-78
2022/03/10 06:25:11;;;;;;;23.85;10.88;;;;;;;1.04;58.47;101214.97;5038276;28;20033;-79
2022/03/10 06:27:36;;;;;;;22.45;11.32;;;;;;;0.98;58.37;101213.34;5055038;28;20025;-78
2022/03/10 06:30:04;;;;;;;25.13;11.15;;;;;;;0.86;58.25;101176.69;5036038;28;20044;-80
2022/03/10 06:32:31;;;;;;;24.60;11.52;;;;;;;0.94;58.02;101197.63;5055148;28;20171;-80
2022/03/10 06:34:59;;;;;;;21.23;9.75;;;;;;;1.13;58.25;101208.47;5052910;28;20055;-78
2022/03/10 06:37:28;;;;;;;19.75;10.35;;;;;;;1.13;57.75;101200.53;5053554;28;20392;-78
2022/03/10 06:39:54;;;;;;;19.00;10.23;;;;;;;1.13;57.68;101179.34;5053865;28;20028;-78
2022/03/10 06:42:22;;;;;;;17.42;9.57;;;;;;;1.43;57.76;101218.91;5052037;28;20131;-79
2022/03/10 06:44:49;;;;;;;26.52;9.75;;;;;;;1.36;57.26;101195.31;5053140;28;20033;-78
2022/03/10 06:47:16;;;;;;;24.33;9.77;;;;;;;1.35;56.96;101180.31;5053385;28;20094;-80
2022/03/10 06:49:41;;;;;;;17.20;9.98;;;;;;;1.66;56.92;101226.03;5055185;28;20063;-79
2022/03/10 06:52:08;;;;;;;22.73;10.90;;;;;;;1.69;57.02;101231.25;5052812;28;20025;-80
2022/03/10 06:54:35;;;;;;;21.35;10.27;;;;;;;1.65;56.96;101219.03;5053197;28;20150;-80
2022/03/10 06:57:00;;;;;;;20.83;10.13;;;;;;;1.69;56.74;101212.69;5052194;28;20143;-81
2022/03/10 06:59:27;;;;;;;20.17;11.35;;;;;;;1.79;57.26;101210.56;5051614;28;20124;-80
2022/03/10 07:01:54;;;;;;;32.38;10.63;;;;;;;1.71;57.01;101208.22;5052796;28;20103;-80
2022/03/10 07:04:20;;;;;;;22.73;10.38;;;;;;;1.77;56.97;101228.31;5051518;28;20045;-79
2022/03/10 07:06:46;;;;;;;19.02;9.75;;;;;;;1.70;56.30;101221.50;5051642;28;20025;-78
2022/03/10 07:09:12;;;;;;;23.70;10.45;;;;;;;1.82;56.62;101226.38;5052648;28;20086;-80
2022/03/10 07:11:38;;;;;;;16.50;9.10;;;;;;;1.72;56.68;101193.13;5052828;28;20483;-79
2022/03/10 07:14:05;;;;;;;18.38;9.73;;;;;;;1.81;56.45;101198.97;5052603;28;20059;-77
2022/03/10 07:16:31;;;;;;;14.00;8.65;;;;;;;1.88;56.22;101200.50;5051131;28;20462;-80
2022/03/10 07:18:56;;;;;;;21.00;9.65;;;;;;;1.91;56.38;101204.81;5052713;28;20056;-78
2022/03/10 07:21:22;;;;;;;25.98;10.50;;;;;;;2.06;55.55;101218.38;5052407;28;20087;-80
2022/03/10 07:23:50;;;;;;;18.20;10.32;;;;;;;2.22;55.58;101247.00;5052239;28;20146;-79
2022/03/10 07:26:16;;;;;;;19.98;9.77;;;;;;;2.23;54.77;101230.16;5034825;28;20032;-78
2022/03/10 07:28:42;;;;;;;18.77;9.45;;;;;;;2.19;54.47;101221.44;5034050;28;20033;-79
2022/03/10 07:31:08;;;;;;;17.70;8.68;;;;;;;2.33;53.76;101236.84;5051295;28;20035;-78
2022/03/10 07:33:34;;;;;;;34.05;9.00;;;;;;;2.18;53.20;101219.72;5052640;28;20043;-78
2022/03/10 07:36:01;;;;;;;14.50;8.95;;;;;;;2.39;53.28;101241.91;5051787;28;20053;-81
2022/03/10 07:38:27;;;;;;;22.38;8.60;;;;;;;2.42;53.69;101220.56;5052084;28;20033;-79
2022/03/10 07:40:54;;;;;;;18.17;8.90;;;;;;;2.43;53.52;101217.00;5034099;28;20033;-80
2022/03/10 07:43:19;;;;;;;15.93;8.00;;;;;;;2.54;52.63;101207.69;5052414;28;20104;-79
2022/03/10 07:45:45;;;;;;;14.63;8.02;;;;;;;2.61;52.12;101217.16;5052261;28;20029;-78
2022/03/10 07:48:13;;;;;;;22.50;9.18;;;;;;;2.62;51.66;101210.03;5051891;28;20561;-80
2022/03/10 07:50:40;;;;;;;18.25;8.40;;;;;;;2.61;50.86;101209.19;5050650;28;20044;-79
2022/03/10 07:53:06;;;;;;;21.77;7.82;;;;;;;2.71;50.22;101241.56;5052274;28;20036;-79
2022/03/10 07:55:31;;;;;;;21.83;8.95;;;;;;;2.49;50.54;101200.81;5034026;28;20029;-81
2022/03/10 07:57:57;;;;;;;22.02;8.55;;;;;;;2.49;50.47;101204.34;5056796;28;20037;-79
2022/03/10 08:00:22;;;;;;;13.38;7.50;;;;;;;2.66;50.88;101222.28;5052952;28;20032;-79
2022/03/10 08:02:49;;;;;;;24.38;7.32;;;;;;;2.73;49.03;101226.41;5051596;28;20028;-79
2022/03/10 08:05:14;;;;;;;16.00;7.20;;;;;;;2.89;49.69;101259.41;5050281;28;20033;-79
2022/03/10 08:07:41;;;;;;;14.80;7.00;;;;;;;3.04;49.68;101258.81;5050766;28;20039;-80
2022/03/10 08:10:08;;;;;;;14.68;6.40;;;;;;;2.87;49.25;101225.88;5050178;28;20037;-79
2022/03/10 08:12:36;;;;;;;14.00;7.22;;;;;;;2.96;48.00;101246.75;5050147;28;20025;-79
2022/03/10 08:15:05;;;;;;;11.10;6.50;;;;;;;3.06;48.45;101248.09;5051535;28;20029;-79
2022/03/10 08:17:32;;;;;;;21.63;6.28;;;;;;;3.11;47.58;101259.41;5052210;28;20136;-80
2022/03/10 08:19:59;;;;;;;13.77;6.32;;;;;;;2.92;47.91;101234.50;5051781;28;20122;-80
2022/03/10 08:22:26;;;;;;;9.15;6.40;;;;;;;3.11;48.42;101262.06;5051286;28;20028;-79
2022/03/10 08:24:52;;;;;;;26.35;11.63;;;;;;;3.21;48.41;101266.09;5051624;28;20025;-79
2022/03/10 08:27:20;;;;;;;13.15;10.10;;;;;;;2.98;48.00;101231.59;5050689;28;20029;-78
2022/03/10 08:29:46;;;;;;;30.50;12.10;;;;;;;3.12;48.12;101243.41;5050543;28;20116;-79
2022/03/10 08:32:13;;;;;;;17.08;8.18;;;;;;;3.16;47.78;101244.13;5051531;28;20041;-79
2022/03/10 08:34:40;;;;;;;15.90;8.52;;;;;;;3.07;47.88;101233.88;5050022;28;20098;-79
2022/03/10 08:37:07;;;;;;;19.02;7.55;;;;;;;2.88;48.20;101215.16;5052021;28;20037;-79
2022/03/10 08:39:33;;;;;;;22.65;8.77;;;;;;;2.99;48.93;101259.91;5050358;28;20041;-79
2022/03/10 08:41:59;;;;;;;16.08;7.97;;;;;;;3.18;49.23;101272.38;5051978;28;20032;-80
2022/03/10 08:44:25;;;;;;;13.25;6.95;;;;;;;3.37;49.26;101268.97;5033937;28;20585;-79
2022/03/10 08:46:51;;;;;;;16.48;8.15;;;;;;;3.35;48.17;101242.47;5034847;28;20033;-77
2022/03/10 08:49:18;;;;;;;21.02;6.95;;;;;;;3.43;47.82;101250.09;5050923;28;20060;-79
2022/03/10 08:51:45;;;;;;;13.15;7.60;;;;;;;3.55;47.89;101262.88;5050452;28;20040;-80
2022/03/10 08:54:12;;;;;;;21.10;7.03;;;;;;;3.54;46.55;101274.47;5051691;28;20032;-78
2022/03/10 08:56:38;;;;;;;29.02;8.77;;;;;;;3.20;46.88;101241.31;5050434;28;20056;-79
2022/03/10 08:59:03;;;;;;;14.60;7.13;;;;;;;3.20;48.23;101230.69;5051840;28;20033;-79
2022/03/10 09:01:31;;;;;;;13.23;7.43;;;;;;;3.52;48.10;101257.69;5052076;28;20028;-78
2022/03/10 09:03:56;;;;;;;13.50;7.25;;;;;;;3.65;48.25;101280.19;5050550;28;20100;-81
2022/03/10 09:06:25;;;;;;;17.17;7.70;;;;;;;3.72;47.51;101284.31;5050363;28;20482;-79
2022/03/10 09:08:50;;;;;;;11.95;7.07;;;;;;;3.62;48.15;101237.75;5050623;28;20032;-80
2022/03/10 09:11:19;;;;;;;12.98;7.68;;;;;;;3.84;47.28;101276.69;5050652;28;20025;-79
2022/03/10 09:13:48;;;;;;;13.93;7.72;;;;;;;3.74;47.21;101258.50;5050178;28;20606;-79
2022/03/10 09:16:18;;;;;;;23.38;9.20;;;;;;;3.62;47.33;101267.00;5051718;28;20017;-79
2022/03/10 09:18:48;;;;;;;17.75;8.43;;;;;;;3.33;47.37;101230.16;5034628;28;20032;-78
2022/03/10 09:21:15;;;;;;;12.38;7.43;;;;;;;3.49;47.82;101242.72;5055606;28;20108;-79
2022/03/10 09:23:42;;;;;;;12.48;8.20;;;;;;;3.53;48.88;101264.75;5054028;28;20032;-80
2022/03/10 09:26:08;;;;;;;20.77;8.50;;;;;;;3.51;48.31;101238.22;5053811;28;20037;-79
2022/03/10 09:28:33;;;;;;;16.40;8.20;;;;;;;3.77;48.48;101258.38;5054894;28;20406;-79
2022/03/10 09:30:59;;;;;;;24.88;7.97;;;;;;;3.61;47.75;101247.53;5055152;28;20021;-82
2022/03/10 09:33:25;;;;;;;10.73;6.68;;;;;;;3.77;47.48;101264.56;5053617;28;20057;-79
2022/03/10 09:35:51;;;;;;;12.32;7.13;;;;;;;3.61;48.45;101230.69;5037282;28;20542;-78
2022/03/10 09:38:18;;;;;;;19.02;8.10;;;;;;;3.88;48.25;101253.47;5062612;28;20025;-79
2022/03/10 09:40:46;;;;;;;14.13;9.50;;;;;;;4.01;48.75;101269.72;5061168;28;20504;-78
2022/03/10 09:43:12;;;;;;;12.20;7.43;;;;;;;4.18;47.13;101256.56;5052780;28;20043;-78
2022/03/10 09:45:37;;;;;;;26.88;7.55;;;;;;;4.22;45.08;101260.81;5054574;28;20483;-80
2022/03/10 09:48:04;;;;;;;13.25;6.72;;;;;;;4.16;46.74;101266.41;5054128;28;20021;-80
2022/03/10 09:50:29;;;;;;;10.85;6.63;;;;;;;3.93;46.60;101251.47;5052985;28;20064;-79
2022/03/10 09:52:56;;;;;;;20.50;7.80;;;;;;;4.10;46.02;101262.22;5054886;28;20036;-78
2022/03/10 09:55:22;;;;;;;12.40;7.07;;;;;;;4.14;45.29;101257.63;5053196;28;20078;-79
2022/03/10 09:57:49;;;;;;;12.95;6.88;;;;;;;3.96;44.19;101259.31;5052844;28;20045;-80
2022/03/10 10:00:17;;;;;;;23.73;6.88;;;;;;;3.99;44.99;101264.50;5053166;28;20041;-79
2022/03/10 10:02:44;;;;;;;12.85;7.20;;;;;;;3.83;45.00;101234.16;5054405;28;20486;-79
2022/03/10 10:05:37;;;;;;;14.48;7.50;;;;;;;4.10;46.98;101270.19;5054443;28;20016;-79
2022/03/10 10:08:10;;;;;;;13.27;6.93;;;;;;;4.09;47.92;101281.78;5054502;28;20101;-79
2022/03/10 10:10:39;;;;;;;19.83;8.27;;;;;;;3.83;47.71;101239.47;5054626;28;20040;-80
2022/03/10 10:13:06;;;;;;;18.40;7.75;;;;;;;4.00;47.83;101271.56;5053768;28;20028;-80
2022/03/10 10:15:42;;;;;;;14.40;9.07;;;;;;;3.91;47.10;101271.09;5053626;28;20343;-79
2022/03/10 10:18:14;;;;;;;10.60;6.97;;;;;;;3.71;46.56;101243.53;5053240;28;20024;-80
2022/03/10 10:20:49;;;;;;;10.65;6.63;;;;;;;3.79;45.20;101232.59;5054054;28;20041;-79
2022/03/10 10:23:26;;;;;;;12.23;7.28;;;;;;;4.09;45.71;101255.19;5054592;28;20037;-80
2022/03/10 10:26:02;;;;;;;18.20;7.57;;;;;;;4.24;44.19;101249.16;5054443;28;20464;-79
2022/03/10 10:28:39;;;;;;;31.50;12.80;;;;;;;4.45;43.56;101283.72;5053128;28;20024;-80
2022/03/10 10:31:11;;;;;;;22.77;8.93;;;;;;;4.40;43.30;101250.16;5054218;28;20530;-81
2022/03/10 10:33:38;;;;;;;;;;;;;;;4.81;44.25;101298.00;5053528;28;20028;-79
2022/03/10 10:36:18;;;;;;;18.33;6.97;;;;;;;4.48;43.81;101272.94;5054037;28;19920;-80
2022/03/10 10:38:47;;;;;;;12.88;6.20;;;;;;;4.37;43.94;101268.94;5052697;28;20028;-81
2022/03/10 10:41:18;;;;;;;17.67;6.65;;;;;;;4.42;44.22;101283.88;5054393;28;20056;-79
2022/03/10 10:43:49;;;;;;;32.50;7.25;;;;;;;4.44;44.46;101276.66;5053894;28;20032;-79
2022/03/10 10:46:45;;;;;;;10.88;7.95;;;;;;;4.44;45.12;101272.19;5052144;28;20097;-79
2022/03/10 10:49:18;;;;;;;23.40;7.90;;;;;;;4.38;44.84;101269.81;5048698;28;20060;-79
2022/03/10 10:51:52;;;;;;;14.85;7.32;;;;;;;4.25;45.16;101245.53;5053159;28;20414;-79
2022/03/10 10:54:28;;;;;;;13.93;8.05;;;;;;;4.57;45.06;101276.03;5051978;28;20025;-80
2022/03/10 10:56:55;;;;;;;12.27;7.63;;;;;;;4.59;45.03;101265.28;5035271;28;20049;-81
2022/03/10 10:59:40;;;;;;;20.17;9.73;;;;;;;4.69;43.27;101277.25;5051644;28;20033;-79
2022/03/10 11:02:16;;;;;;;23.38;8.68;;;;;;;4.76;42.15;101284.03;5051637;28;20119;-79
2022/03/10 11:04:48;;;;;;;13.75;8.27;;;;;;;4.61;42.14;101258.13;5052910;28;20132;-79
2022/03/10 11:07:15;;;;;;;30.27;9.13;;;;;;;4.72;41.10;101274.44;5052848;28;20024;-79
2022/03/10 11:09:45;;;;;;;27.65;9.30;;;;;;;4.60;41.34;101275.03;5053031;28;20021;-79
2022/03/10 11:12:14;;;;;;;28.08;8.32;;;;;;;4.73;42.03;101276.19;5051908;28;20036;-80
2022/03/10 11:14:41;;;;;;;10.80;6.72;;;;;;;4.99;41.97;101291.78;5051814;28;20033;-80
2022/03/10 11:17:12;;;;;;;18.60;8.90;;;;;;;5.19;41.98;101294.38;5053617;28;20024;-78
2022/03/10 11:19:49;;;;;;;23.83;9.37;;;;;;;5.30;42.86;101301.84;5060112;28;20032;-80
2022/03/10 11:22:23;;;;;;;22.38;9.95;;;;;;;5.25;43.66;101301.22;5061867;28;20025;-80
2022/03/10 11:25:19;;;;;;;29.35;8.93;;;;;;;5.18;43.23;101292.66;5050873;28;20031;-78
2022/03/10 11:27:56;;;;;;;21.50;9.65;;;;;;;5.27;42.03;101302.88;5050721;28;20028;-80
2022/03/10 11:30:27;;;;;;;29.77;9.80;;;;;;;5.01;42.08;101265.94;5052173;28;20035;-79